sensor_id;sensor_type;location;lat;lon;timestamp;P1;durP1;ratioP1;P2;durP2;ratioP2
10882;SDS011;5494;51.796;10.952;2023-04-15T00:00:04;5.93;;;4.87;;
10882;SDS011;5494;51.796;10.952;2023-04-15T00:02:45;6.07;;;4.93;;
10882;SDS011;5494;51.796;10.952;2023-04-15T00:05:14;6.53;;;5.00;;
10882;SDS011;5494;51.796;10.952;2023-04-15T00:07:42;6.40;;;4.90;;
10882;SDS011;5494;51.796;10.952;2023-04-15T00:10:12;6.50;;;5.07;;
10882;SDS011;5494;51.796;10.952;2023-04-15T00:12:40;9.10;;;4.87;;
10882;SDS011;5494;51.796;10.952;2023-04-15T00:15:08;4.80;;;4.17;;
10882;SDS011;5494;51.796;10.952;2023-04-15T00:17:37;6.30;;;4.67;;
10882;SDS011;5494;51.796;10.952;2023-04-15T00:20:08;5.47;;;4.57;;
10882;SDS011;5494;51.796;10.952;2023-04-15T00:22:36;6.23;;;4.63;;
10882;SDS011;5494;51.796;10.952;2023-04-15T00:25:04;6.57;;;4.90;;
10882;SDS011;5494;51.796;10.952;2023-04-15T00:27:33;7.07;;;5.23;;
10882;SDS011;5494;51.796;10.952;2023-04-15T00:30:01;6.20;;;5.30;;
10882;SDS011;5494;51.796;10.952;2023-04-15T00:32:30;11.33;;;6.17;;
10882;SDS011;5494;51.796;10.952;2023-04-15T00:34:58;8.87;;;6.70;;
10882;SDS011;5494;51.796;10.952;2023-04-15T00:37:27;7.67;;;6.17;;
10882;SDS011;5494;51.796;10.952;2023-04-15T00:39:55;6.50;;;5.80;;
10882;SDS011;5494;51.796;10.952;2023-04-15T00:42:23;7.03;;;6.07;;
10882;SDS011;5494;51.796;10.952;2023-04-15T00:44:52;8.43;;;6.37;;
10882;SDS011;5494;51.796;10.952;2023-04-15T00:47:26;8.90;;;6.90;;
10882;SDS011;5494;51.796;10.952;2023-04-15T00:49:56;10.03;;;6.93;;
10882;SDS011;5494;51.796;10.952;2023-04-15T00:52:24;9.67;;;6.70;;
10882;SDS011;5494;51.796;10.952;2023-04-15T00:54:54;8.30;;;6.03;;
10882;SDS011;5494;51.796;10.952;2023-04-15T00:57:22;7.83;;;6.23;;
10882;SDS011;5494;51.796;10.952;2023-04-15T00:59:50;8.80;;;6.50;;
10882;SDS011;5494;51.796;10.952;2023-04-15T01:02:19;9.13;;;6.87;;
10882;SDS011;5494;51.796;10.952;2023-04-15T01:04:48;8.67;;;6.33;;
10882;SDS011;5494;51.796;10.952;2023-04-15T01:07:16;9.53;;;6.07;;
10882;SDS011;5494;51.796;10.952;2023-04-15T01:09:44;8.67;;;6.23;;
10882;SDS011;5494;51.796;10.952;2023-04-15T01:12:14;9.03;;;6.80;;
10882;SDS011;5494;51.796;10.952;2023-04-15T01:14:44;7.03;;;6.17;;
10882;SDS011;5494;51.796;10.952;2023-04-15T01:17:12;8.77;;;6.50;;
10882;SDS011;5494;51.796;10.952;2023-04-15T01:19:40;10.53;;;7.67;;
10882;SDS011;5494;51.796;10.952;2023-04-15T01:22:09;11.10;;;7.70;;
10882;SDS011;5494;51.796;10.952;2023-04-15T01:24:37;11.37;;;8.30;;
10882;SDS011;5494;51.796;10.952;2023-04-15T01:27:06;12.33;;;8.20;;
10882;SDS011;5494;51.796;10.952;2023-04-15T01:29:36;11.07;;;8.13;;
10882;SDS011;5494;51.796;10.952;2023-04-15T01:32:04;11.53;;;7.83;;
10882;SDS011;5494;51.796;10.952;2023-04-15T01:34:33;9.43;;;7.17;;
10882;SDS011;5494;51.796;10.952;2023-04-15T01:37:01;10.83;;;7.27;;
10882;SDS011;5494;51.796;10.952;2023-04-15T01:39:29;10.70;;;7.27;;
10882;SDS011;5494;51.796;10.952;2023-04-15T01:41:57;9.40;;;6.73;;
10882;SDS011;5494;51.796;10.952;2023-04-15T01:44:26;9.17;;;7.23;;
10882;SDS011;5494;51.796;10.952;2023-04-15T01:46:54;9.23;;;7.10;;
10882;SDS011;5494;51.796;10.952;2023-04-15T01:49:22;9.53;;;7.07;;
10882;SDS011;5494;51.796;10.952;2023-04-15T01:51:52;9.83;;;6.80;;
10882;SDS011;5494;51.796;10.952;2023-04-15T01:54:20;9.83;;;7.30;;
10882;SDS011;5494;51.796;10.952;2023-04-15T01:56:49;10.83;;;7.60;;
10882;SDS011;5494;51.796;10.952;2023-04-15T01:59:17;9.50;;;7.37;;
10882;SDS011;5494;51.796;10.952;2023-04-15T02:01:47;10.70;;;7.33;;
10882;SDS011;5494;51.796;10.952;2023-04-15T02:04:16;9.87;;;7.17;;
10882;SDS011;5494;51.796;10.952;2023-04-15T02:06:43;12.17;;;7.63;;
10882;SDS011;5494;51.796;10.952;2023-04-15T02:09:12;8.87;;;7.83;;
10882;SDS011;5494;51.796;10.952;2023-04-15T02:11:40;12.73;;;8.07;;
10882;SDS011;5494;51.796;10.952;2023-04-15T02:14:08;11.50;;;8.07;;
10882;SDS011;5494;51.796;10.952;2023-04-15T02:16:36;10.47;;;8.03;;
10882;SDS011;5494;51.796;10.952;2023-04-15T02:19:07;10.63;;;7.60;;
10882;SDS011;5494;51.796;10.952;2023-04-15T02:21:36;11.43;;;7.90;;
10882;SDS011;5494;51.796;10.952;2023-04-15T02:24:05;11.93;;;8.00;;
10882;SDS011;5494;51.796;10.952;2023-04-15T02:26:33;10.87;;;7.83;;
10882;SDS011;5494;51.796;10.952;2023-04-15T02:29:01;9.57;;;7.30;;
10882;SDS011;5494;51.796;10.952;2023-04-15T02:31:29;11.77;;;8.43;;
10882;SDS011;5494;51.796;10.952;2023-04-15T02:34:02;10.83;;;7.27;;
10882;SDS011;5494;51.796;10.952;2023-04-15T02:36:32;12.13;;;8.60;;
10882;SDS011;5494;51.796;10.952;2023-04-15T02:38:59;11.73;;;8.07;;
10882;SDS011;5494;51.796;10.952;2023-04-15T02:41:28;12.23;;;8.20;;
10882;SDS011;5494;51.796;10.952;2023-04-15T02:43:57;11.07;;;7.47;;
10882;SDS011;5494;51.796;10.952;2023-04-15T02:46:26;10.43;;;7.37;;
10882;SDS011;5494;51.796;10.952;2023-04-15T02:48:54;12.17;;;8.00;;
10882;SDS011;5494;51.796;10.952;2023-04-15T02:51:25;10.97;;;7.83;;
10882;SDS011;5494;51.796;10.952;2023-04-15T02:53:58;11.00;;;7.97;;
10882;SDS011;5494;51.796;10.952;2023-04-15T02:56:27;12.27;;;7.93;;
10882;SDS011;5494;51.796;10.952;2023-04-15T02:58:55;13.00;;;7.87;;
10882;SDS011;5494;51.796;10.952;2023-04-15T03:01:24;12.00;;;8.10;;
10882;SDS011;5494;51.796;10.952;2023-04-15T03:03:52;10.50;;;7.40;;
10882;SDS011;5494;51.796;10.952;2023-04-15T03:06:20;10.77;;;7.70;;
10882;SDS011;5494;51.796;10.952;2023-04-15T03:08:49;12.90;;;8.07;;
10882;SDS011;5494;51.796;10.952;2023-04-15T03:11:20;12.13;;;7.87;;
10882;SDS011;5494;51.796;10.952;2023-04-15T03:13:51;13.80;;;7.97;;
10882;SDS011;5494;51.796;10.952;2023-04-15T03:16:30;13.00;;;8.10;;
10882;SDS011;5494;51.796;10.952;2023-04-15T03:18:58;13.63;;;8.20;;
10882;SDS011;5494;51.796;10.952;2023-04-15T03:21:27;11.93;;;7.27;;
10882;SDS011;5494;51.796;10.952;2023-04-15T03:23:55;11.73;;;8.10;;
10882;SDS011;5494;51.796;10.952;2023-04-15T03:26:26;12.13;;;7.83;;
10882;SDS011;5494;51.796;10.952;2023-04-15T03:28:59;12.67;;;8.33;;
10882;SDS011;5494;51.796;10.952;2023-04-15T03:31:28;12.30;;;8.80;;
10882;SDS011;5494;51.796;10.952;2023-04-15T03:33:56;13.03;;;8.30;;
10882;SDS011;5494;51.796;10.952;2023-04-15T03:36:24;16.30;;;9.90;;
10882;SDS011;5494;51.796;10.952;2023-04-15T03:38:55;15.50;;;9.57;;
10882;SDS011;5494;51.796;10.952;2023-04-15T03:41:25;14.80;;;8.83;;
10882;SDS011;5494;51.796;10.952;2023-04-15T03:43:53;16.47;;;9.23;;
10882;SDS011;5494;51.796;10.952;2023-04-15T03:46:21;16.03;;;10.43;;
10882;SDS011;5494;51.796;10.952;2023-04-15T03:48:50;16.50;;;10.37;;
10882;SDS011;5494;51.796;10.952;2023-04-15T03:51:18;15.47;;;9.47;;
10882;SDS011;5494;51.796;10.952;2023-04-15T03:53:46;16.70;;;10.97;;
10882;SDS011;5494;51.796;10.952;2023-04-15T03:56:14;20.63;;;12.07;;
10882;SDS011;5494;51.796;10.952;2023-04-15T03:58:43;19.60;;;12.23;;
10882;SDS011;5494;51.796;10.952;2023-04-15T04:01:11;17.80;;;11.70;;
10882;SDS011;5494;51.796;10.952;2023-04-15T04:03:40;20.17;;;13.33;;
10882;SDS011;5494;51.796;10.952;2023-04-15T04:06:08;22.97;;;12.93;;
10882;SDS011;5494;51.796;10.952;2023-04-15T04:08:37;19.67;;;13.23;;
10882;SDS011;5494;51.796;10.952;2023-04-15T04:11:06;23.00;;;14.50;;
10882;SDS011;5494;51.796;10.952;2023-04-15T04:13:34;23.73;;;14.13;;
10882;SDS011;5494;51.796;10.952;2023-04-15T04:16:03;27.40;;;16.33;;
10882;SDS011;5494;51.796;10.952;2023-04-15T04:18:32;27.87;;;16.03;;
10882;SDS011;5494;51.796;10.952;2023-04-15T04:21:00;26.43;;;15.20;;
10882;SDS011;5494;51.796;10.952;2023-04-15T04:23:28;28.17;;;16.63;;
10882;SDS011;5494;51.796;10.952;2023-04-15T04:25:56;29.30;;;16.30;;
10882;SDS011;5494;51.796;10.952;2023-04-15T04:28:24;27.53;;;15.70;;
10882;SDS011;5494;51.796;10.952;2023-04-15T04:30:52;32.00;;;17.00;;
10882;SDS011;5494;51.796;10.952;2023-04-15T04:33:22;29.77;;;15.53;;
10882;SDS011;5494;51.796;10.952;2023-04-15T04:35:50;27.47;;;15.23;;
10882;SDS011;5494;51.796;10.952;2023-04-15T04:38:18;26.63;;;14.13;;
10882;SDS011;5494;51.796;10.952;2023-04-15T04:40:46;27.83;;;15.07;;
10882;SDS011;5494;51.796;10.952;2023-04-15T04:43:14;27.57;;;15.50;;
10882;SDS011;5494;51.796;10.952;2023-04-15T04:45:42;27.10;;;15.10;;
10882;SDS011;5494;51.796;10.952;2023-04-15T04:48:10;26.10;;;13.20;;
10882;SDS011;5494;51.796;10.952;2023-04-15T04:50:40;23.50;;;12.33;;
10882;SDS011;5494;51.796;10.952;2023-04-15T04:53:08;22.70;;;13.53;;
10882;SDS011;5494;51.796;10.952;2023-04-15T04:55:37;20.27;;;12.10;;
10882;SDS011;5494;51.796;10.952;2023-04-15T04:58:05;23.93;;;14.00;;
10882;SDS011;5494;51.796;10.952;2023-04-15T05:00:32;22.67;;;13.00;;
10882;SDS011;5494;51.796;10.952;2023-04-15T05:03:02;23.17;;;13.77;;
10882;SDS011;5494;51.796;10.952;2023-04-15T05:05:31;21.00;;;12.77;;
10882;SDS011;5494;51.796;10.952;2023-04-15T05:08:01;20.77;;;11.50;;
10882;SDS011;5494;51.796;10.952;2023-04-15T05:10:30;21.43;;;12.37;;
10882;SDS011;5494;51.796;10.952;2023-04-15T05:12:58;20.97;;;12.23;;
10882;SDS011;5494;51.796;10.952;2023-04-15T05:15:26;21.00;;;12.23;;
10882;SDS011;5494;51.796;10.952;2023-04-15T05:17:54;21.30;;;12.80;;
10882;SDS011;5494;51.796;10.952;2023-04-15T05:20:22;20.40;;;11.57;;
10882;SDS011;5494;51.796;10.952;2023-04-15T05:22:50;19.63;;;12.10;;
10882;SDS011;5494;51.796;10.952;2023-04-15T05:25:19;18.07;;;11.23;;
10882;SDS011;5494;51.796;10.952;2023-04-15T05:27:47;18.03;;;10.73;;
10882;SDS011;5494;51.796;10.952;2023-04-15T05:30:15;16.70;;;10.20;;
10882;SDS011;5494;51.796;10.952;2023-04-15T05:32:43;15.87;;;10.23;;
10882;SDS011;5494;51.796;10.952;2023-04-15T05:35:12;14.67;;;9.07;;
10882;SDS011;5494;51.796;10.952;2023-04-15T05:37:40;16.50;;;10.37;;
10882;SDS011;5494;51.796;10.952;2023-04-15T05:40:08;19.30;;;10.33;;
10882;SDS011;5494;51.796;10.952;2023-04-15T05:42:38;15.57;;;9.53;;
10882;SDS011;5494;51.796;10.952;2023-04-15T05:45:06;16.43;;;9.67;;
10882;SDS011;5494;51.796;10.952;2023-04-15T05:47:35;15.03;;;8.80;;
10882;SDS011;5494;51.796;10.952;2023-04-15T05:50:03;14.97;;;9.40;;
10882;SDS011;5494;51.796;10.952;2023-04-15T05:52:33;13.53;;;8.70;;
10882;SDS011;5494;51.796;10.952;2023-04-15T05:55:01;12.37;;;7.83;;
10882;SDS011;5494;51.796;10.952;2023-04-15T05:57:29;13.53;;;8.47;;
10882;SDS011;5494;51.796;10.952;2023-04-15T05:59:59;15.73;;;9.50;;
10882;SDS011;5494;51.796;10.952;2023-04-15T06:02:34;15.50;;;10.53;;
10882;SDS011;5494;51.796;10.952;2023-04-15T06:05:03;16.40;;;10.13;;
10882;SDS011;5494;51.796;10.952;2023-04-15T06:07:35;14.90;;;9.57;;
10882;SDS011;5494;51.796;10.952;2023-04-15T06:10:04;15.40;;;10.20;;
10882;SDS011;5494;51.796;10.952;2023-04-15T06:12:34;17.97;;;11.37;;
10882;SDS011;5494;51.796;10.952;2023-04-15T06:15:04;15.47;;;10.73;;
10882;SDS011;5494;51.796;10.952;2023-04-15T06:17:35;14.83;;;9.57;;
10882;SDS011;5494;51.796;10.952;2023-04-15T06:20:03;15.00;;;9.40;;
10882;SDS011;5494;51.796;10.952;2023-04-15T06:22:35;11.57;;;8.23;;
10882;SDS011;5494;51.796;10.952;2023-04-15T06:25:04;13.03;;;8.30;;
10882;SDS011;5494;51.796;10.952;2023-04-15T06:27:34;13.93;;;9.43;;
10882;SDS011;5494;51.796;10.952;2023-04-15T06:30:04;12.30;;;8.23;;
10882;SDS011;5494;51.796;10.952;2023-04-15T06:32:33;12.63;;;9.33;;
10882;SDS011;5494;51.796;10.952;2023-04-15T06:35:01;12.17;;;8.37;;
10882;SDS011;5494;51.796;10.952;2023-04-15T06:37:30;12.03;;;7.97;;
10882;SDS011;5494;51.796;10.952;2023-04-15T06:39:58;12.43;;;8.17;;
10882;SDS011;5494;51.796;10.952;2023-04-15T06:42:26;11.97;;;8.43;;
10882;SDS011;5494;51.796;10.952;2023-04-15T06:44:54;11.37;;;7.73;;
10882;SDS011;5494;51.796;10.952;2023-04-15T06:47:24;12.00;;;8.70;;
10882;SDS011;5494;51.796;10.952;2023-04-15T06:49:52;13.23;;;8.70;;
10882;SDS011;5494;51.796;10.952;2023-04-15T06:52:20;13.07;;;8.80;;
10882;SDS011;5494;51.796;10.952;2023-04-15T06:54:47;10.93;;;8.50;;
10882;SDS011;5494;51.796;10.952;2023-04-15T06:57:15;12.53;;;9.30;;
10882;SDS011;5494;51.796;10.952;2023-04-15T06:59:46;10.63;;;6.87;;
10882;SDS011;5494;51.796;10.952;2023-04-15T07:02:14;12.37;;;8.60;;
10882;SDS011;5494;51.796;10.952;2023-04-15T07:04:45;18.47;;;12.20;;
10882;SDS011;5494;51.796;10.952;2023-04-15T07:07:14;12.57;;;8.97;;
10882;SDS011;5494;51.796;10.952;2023-04-15T07:09:42;11.70;;;8.33;;
10882;SDS011;5494;51.796;10.952;2023-04-15T07:12:10;12.03;;;8.60;;
10882;SDS011;5494;51.796;10.952;2023-04-15T07:14:38;14.23;;;10.13;;
10882;SDS011;5494;51.796;10.952;2023-04-15T07:17:07;18.00;;;12.93;;
10882;SDS011;5494;51.796;10.952;2023-04-15T07:19:35;14.80;;;9.63;;
10882;SDS011;5494;51.796;10.952;2023-04-15T07:22:05;13.80;;;8.57;;
10882;SDS011;5494;51.796;10.952;2023-04-15T07:24:32;13.00;;;8.87;;
10882;SDS011;5494;51.796;10.952;2023-04-15T07:27:01;12.03;;;8.10;;
10882;SDS011;5494;51.796;10.952;2023-04-15T07:29:29;13.57;;;9.40;;
10882;SDS011;5494;51.796;10.952;2023-04-15T07:31:57;12.80;;;8.70;;
10882;SDS011;5494;51.796;10.952;2023-04-15T07:34:25;13.93;;;9.50;;
10882;SDS011;5494;51.796;10.952;2023-04-15T07:36:56;16.30;;;10.53;;
10882;SDS011;5494;51.796;10.952;2023-04-15T07:39:26;13.57;;;8.80;;
10882;SDS011;5494;51.796;10.952;2023-04-15T07:41:54;18.50;;;11.27;;
10882;SDS011;5494;51.796;10.952;2023-04-15T07:44:22;32.23;;;17.93;;
10882;SDS011;5494;51.796;10.952;2023-04-15T07:46:50;18.40;;;12.43;;
10882;SDS011;5494;51.796;10.952;2023-04-15T07:49:18;21.30;;;13.77;;
10882;SDS011;5494;51.796;10.952;2023-04-15T07:51:46;14.83;;;9.80;;
10882;SDS011;5494;51.796;10.952;2023-04-15T07:54:15;16.60;;;9.87;;
10882;SDS011;5494;51.796;10.952;2023-04-15T07:56:44;15.47;;;10.37;;
10882;SDS011;5494;51.796;10.952;2023-04-15T07:59:12;20.63;;;13.27;;
10882;SDS011;5494;51.796;10.952;2023-04-15T08:01:43;19.67;;;12.47;;
10882;SDS011;5494;51.796;10.952;2023-04-15T08:04:11;14.33;;;10.00;;
10882;SDS011;5494;51.796;10.952;2023-04-15T08:06:39;12.47;;;7.83;;
10882;SDS011;5494;51.796;10.952;2023-04-15T08:09:07;12.97;;;8.37;;
10882;SDS011;5494;51.796;10.952;2023-04-15T08:11:35;13.23;;;9.10;;
10882;SDS011;5494;51.796;10.952;2023-04-15T08:14:04;24.17;;;11.77;;
10882;SDS011;5494;51.796;10.952;2023-04-15T08:16:33;20.10;;;10.97;;
10882;SDS011;5494;51.796;10.952;2023-04-15T08:19:01;11.50;;;8.30;;
10882;SDS011;5494;51.796;10.952;2023-04-15T08:21:30;14.13;;;9.43;;
10882;SDS011;5494;51.796;10.952;2023-04-15T08:23:58;12.00;;;8.07;;
10882;SDS011;5494;51.796;10.952;2023-04-15T08:26:26;12.43;;;8.77;;
10882;SDS011;5494;51.796;10.952;2023-04-15T08:28:54;11.23;;;7.63;;
10882;SDS011;5494;51.796;10.952;2023-04-15T08:31:25;13.33;;;8.73;;
10882;SDS011;5494;51.796;10.952;2023-04-15T08:33:55;12.77;;;7.87;;
10882;SDS011;5494;51.796;10.952;2023-04-15T08:36:24;12.77;;;8.30;;
10882;SDS011;5494;51.796;10.952;2023-04-15T08:38:52;12.13;;;8.20;;
10882;SDS011;5494;51.796;10.952;2023-04-15T08:41:21;12.50;;;8.07;;
10882;SDS011;5494;51.796;10.952;2023-04-15T08:43:52;11.97;;;7.63;;
10882;SDS011;5494;51.796;10.952;2023-04-15T08:46:25;12.60;;;7.93;;
10882;SDS011;5494;51.796;10.952;2023-04-15T08:48:55;10.00;;;7.13;;
10882;SDS011;5494;51.796;10.952;2023-04-15T08:51:25;10.57;;;7.30;;
10882;SDS011;5494;51.796;10.952;2023-04-15T08:53:55;10.77;;;8.27;;
10882;SDS011;5494;51.796;10.952;2023-04-15T08:56:24;10.20;;;7.17;;
10882;SDS011;5494;51.796;10.952;2023-04-15T08:58:52;10.40;;;7.43;;
10882;SDS011;5494;51.796;10.952;2023-04-15T09:01:21;12.17;;;8.63;;
10882;SDS011;5494;51.796;10.952;2023-04-15T09:03:51;13.90;;;9.23;;
10882;SDS011;5494;51.796;10.952;2023-04-15T09:06:20;12.60;;;8.73;;
10882;SDS011;5494;51.796;10.952;2023-04-15T09:08:49;13.90;;;9.33;;
10882;SDS011;5494;51.796;10.952;2023-04-15T09:11:18;11.50;;;8.20;;
10882;SDS011;5494;51.796;10.952;2023-04-15T09:13:48;14.37;;;10.17;;
10882;SDS011;5494;51.796;10.952;2023-04-15T09:16:17;14.40;;;10.07;;
10882;SDS011;5494;51.796;10.952;2023-04-15T09:18:45;14.87;;;10.47;;
10882;SDS011;5494;51.796;10.952;2023-04-15T09:21:15;18.17;;;11.77;;
10882;SDS011;5494;51.796;10.952;2023-04-15T09:23:53;14.20;;;9.33;;
10882;SDS011;5494;51.796;10.952;2023-04-15T09:26:31;12.33;;;9.40;;
10882;SDS011;5494;51.796;10.952;2023-04-15T09:29:02;14.27;;;9.93;;
10882;SDS011;5494;51.796;10.952;2023-04-15T09:31:32;16.17;;;10.33;;
10882;SDS011;5494;51.796;10.952;2023-04-15T09:34:01;17.67;;;11.23;;
10882;SDS011;5494;51.796;10.952;2023-04-15T09:36:33;13.30;;;9.57;;
10882;SDS011;5494;51.796;10.952;2023-04-15T09:39:18;13.83;;;9.60;;
10882;SDS011;5494;51.796;10.952;2023-04-15T09:41:46;19.10;;;12.00;;
10882;SDS011;5494;51.796;10.952;2023-04-15T09:44:30;16.50;;;11.63;;
10882;SDS011;5494;51.796;10.952;2023-04-15T09:46:58;15.50;;;11.37;;
10882;SDS011;5494;51.796;10.952;2023-04-15T09:49:27;15.83;;;10.77;;
10882;SDS011;5494;51.796;10.952;2023-04-15T09:52:00;16.77;;;11.33;;
10882;SDS011;5494;51.796;10.952;2023-04-15T09:54:32;15.23;;;10.00;;
10882;SDS011;5494;51.796;10.952;2023-04-15T09:57:05;17.13;;;11.83;;
10882;SDS011;5494;51.796;10.952;2023-04-15T09:59:35;21.03;;;15.50;;
10882;SDS011;5494;51.796;10.952;2023-04-15T10:02:04;15.30;;;10.73;;
10882;SDS011;5494;51.796;10.952;2023-04-15T10:04:34;16.30;;;11.13;;
10882;SDS011;5494;51.796;10.952;2023-04-15T10:07:09;15.03;;;10.50;;
10882;SDS011;5494;51.796;10.952;2023-04-15T10:09:38;16.97;;;11.33;;
10882;SDS011;5494;51.796;10.952;2023-04-15T10:12:07;18.07;;;11.83;;
10882;SDS011;5494;51.796;10.952;2023-04-15T10:14:36;17.67;;;11.47;;
10882;SDS011;5494;51.796;10.952;2023-04-15T10:17:06;17.60;;;12.13;;
10882;SDS011;5494;51.796;10.952;2023-04-15T10:19:37;18.97;;;12.10;;
10882;SDS011;5494;51.796;10.952;2023-04-15T10:22:09;23.53;;;13.57;;
10882;SDS011;5494;51.796;10.952;2023-04-15T10:24:37;19.17;;;11.97;;
10882;SDS011;5494;51.796;10.952;2023-04-15T10:27:06;23.80;;;12.97;;
10882;SDS011;5494;51.796;10.952;2023-04-15T10:29:35;24.73;;;14.07;;
10882;SDS011;5494;51.796;10.952;2023-04-15T10:32:04;26.47;;;15.17;;
10882;SDS011;5494;51.796;10.952;2023-04-15T10:34:33;45.40;;;20.80;;
10882;SDS011;5494;51.796;10.952;2023-04-15T10:37:02;71.33;;;27.80;;
10882;SDS011;5494;51.796;10.952;2023-04-15T10:39:39;54.30;;;24.73;;
10882;SDS011;5494;51.796;10.952;2023-04-15T10:42:10;74.23;;;34.77;;
10882;SDS011;5494;51.796;10.952;2023-04-15T10:44:40;24.50;;;14.93;;
10882;SDS011;5494;51.796;10.952;2023-04-15T10:47:10;20.67;;;14.20;;
10882;SDS011;5494;51.796;10.952;2023-04-15T10:49:44;22.27;;;13.57;;
10882;SDS011;5494;51.796;10.952;2023-04-15T10:52:15;21.73;;;12.70;;
10882;SDS011;5494;51.796;10.952;2023-04-15T10:54:50;24.23;;;13.67;;
10882;SDS011;5494;51.796;10.952;2023-04-15T10:57:33;22.20;;;13.73;;
10882;SDS011;5494;51.796;10.952;2023-04-15T11:00:08;26.60;;;16.33;;
10882;SDS011;5494;51.796;10.952;2023-04-15T11:02:51;23.20;;;15.93;;
10882;SDS011;5494;51.796;10.952;2023-04-15T11:05:22;21.63;;;14.83;;
10882;SDS011;5494;51.796;10.952;2023-04-15T11:08:18;25.27;;;15.13;;
10882;SDS011;5494;51.796;10.952;2023-04-15T11:10:51;23.17;;;15.40;;
10882;SDS011;5494;51.796;10.952;2023-04-15T11:13:23;25.93;;;13.27;;
10882;SDS011;5494;51.796;10.952;2023-04-15T11:15:54;23.17;;;13.00;;
10882;SDS011;5494;51.796;10.952;2023-04-15T11:18:27;26.50;;;17.00;;
10882;SDS011;5494;51.796;10.952;2023-04-15T11:21:02;29.90;;;16.63;;
10882;SDS011;5494;51.796;10.952;2023-04-15T11:23:34;29.40;;;16.43;;
10882;SDS011;5494;51.796;10.952;2023-04-15T11:26:06;29.70;;;16.40;;
10882;SDS011;5494;51.796;10.952;2023-04-15T11:28:38;21.67;;;14.43;;
10882;SDS011;5494;51.796;10.952;2023-04-15T11:31:08;29.63;;;14.93;;
10882;SDS011;5494;51.796;10.952;2023-04-15T11:33:43;23.77;;;13.97;;
10882;SDS011;5494;51.796;10.952;2023-04-15T11:36:13;28.17;;;16.97;;
10882;SDS011;5494;51.796;10.952;2023-04-15T11:38:42;24.13;;;15.13;;
10882;SDS011;5494;51.796;10.952;2023-04-15T11:41:14;30.03;;;18.87;;
10882;SDS011;5494;51.796;10.952;2023-04-15T11:43:47;22.63;;;14.10;;
10882;SDS011;5494;51.796;10.952;2023-04-15T11:46:15;22.23;;;13.87;;
10882;SDS011;5494;51.796;10.952;2023-04-15T11:48:44;22.73;;;15.87;;
10882;SDS011;5494;51.796;10.952;2023-04-15T11:51:13;23.97;;;13.43;;
10882;SDS011;5494;51.796;10.952;2023-04-15T11:53:42;19.07;;;12.30;;
10882;SDS011;5494;51.796;10.952;2023-04-15T11:56:17;19.17;;;13.00;;
10882;SDS011;5494;51.796;10.952;2023-04-15T11:58:47;18.47;;;11.87;;
10882;SDS011;5494;51.796;10.952;2023-04-15T12:01:18;22.57;;;13.13;;
10882;SDS011;5494;51.796;10.952;2023-04-15T12:03:47;17.70;;;12.00;;
10882;SDS011;5494;51.796;10.952;2023-04-15T12:06:16;18.77;;;12.40;;
10882;SDS011;5494;51.796;10.952;2023-04-15T12:09:00;20.10;;;12.73;;
10882;SDS011;5494;51.796;10.952;2023-04-15T12:11:37;17.80;;;11.87;;
10882;SDS011;5494;51.796;10.952;2023-04-15T12:14:09;19.70;;;11.67;;
10882;SDS011;5494;51.796;10.952;2023-04-15T12:16:43;19.93;;;11.77;;
10882;SDS011;5494;51.796;10.952;2023-04-15T12:19:18;19.57;;;11.43;;
10882;SDS011;5494;51.796;10.952;2023-04-15T12:21:52;19.90;;;12.50;;
10882;SDS011;5494;51.796;10.952;2023-04-15T12:24:26;23.77;;;14.00;;
10882;SDS011;5494;51.796;10.952;2023-04-15T12:27:00;25.53;;;14.50;;
10882;SDS011;5494;51.796;10.952;2023-04-15T12:29:31;50.63;;;14.17;;
10882;SDS011;5494;51.796;10.952;2023-04-15T12:32:03;43.83;;;17.30;;
10882;SDS011;5494;51.796;10.952;2023-04-15T12:34:34;46.27;;;17.83;;
10882;SDS011;5494;51.796;10.952;2023-04-15T12:37:04;39.73;;;18.43;;
10882;SDS011;5494;51.796;10.952;2023-04-15T12:39:36;43.13;;;21.90;;
10882;SDS011;5494;51.796;10.952;2023-04-15T12:42:08;51.73;;;23.27;;
10882;SDS011;5494;51.796;10.952;2023-04-15T12:44:38;51.00;;;23.33;;
10882;SDS011;5494;51.796;10.952;2023-04-15T12:47:06;58.30;;;26.20;;
10882;SDS011;5494;51.796;10.952;2023-04-15T12:49:36;50.07;;;25.93;;
10882;SDS011;5494;51.796;10.952;2023-04-15T12:52:05;51.33;;;23.97;;
10882;SDS011;5494;51.796;10.952;2023-04-15T12:54:33;51.80;;;24.93;;
10882;SDS011;5494;51.796;10.952;2023-04-15T12:57:01;46.07;;;23.87;;
10882;SDS011;5494;51.796;10.952;2023-04-15T12:59:34;48.97;;;24.80;;
10882;SDS011;5494;51.796;10.952;2023-04-15T13:02:02;49.93;;;26.17;;
10882;SDS011;5494;51.796;10.952;2023-04-15T13:04:33;49.50;;;25.37;;
10882;SDS011;5494;51.796;10.952;2023-04-15T13:07:02;53.13;;;26.53;;
10882;SDS011;5494;51.796;10.952;2023-04-15T13:09:32;44.90;;;24.23;;
10882;SDS011;5494;51.796;10.952;2023-04-15T13:12:00;54.87;;;28.70;;
10882;SDS011;5494;51.796;10.952;2023-04-15T13:14:29;42.87;;;24.27;;
10882;SDS011;5494;51.796;10.952;2023-04-15T13:16:59;49.73;;;25.67;;
10882;SDS011;5494;51.796;10.952;2023-04-15T13:19:28;49.27;;;25.23;;
10882;SDS011;5494;51.796;10.952;2023-04-15T13:21:55;48.60;;;25.20;;
10882;SDS011;5494;51.796;10.952;2023-04-15T13:24:23;46.00;;;25.37;;
10882;SDS011;5494;51.796;10.952;2023-04-15T13:26:52;48.33;;;25.60;;
10882;SDS011;5494;51.796;10.952;2023-04-15T13:29:19;47.93;;;24.13;;
10882;SDS011;5494;51.796;10.952;2023-04-15T13:31:48;45.83;;;25.47;;
10882;SDS011;5494;51.796;10.952;2023-04-15T13:34:17;48.07;;;23.93;;
10882;SDS011;5494;51.796;10.952;2023-04-15T13:36:45;44.93;;;24.10;;
10882;SDS011;5494;51.796;10.952;2023-04-15T13:39:14;43.77;;;22.97;;
10882;SDS011;5494;51.796;10.952;2023-04-15T13:41:42;45.30;;;24.63;;
10882;SDS011;5494;51.796;10.952;2023-04-15T13:44:10;45.30;;;22.90;;
10882;SDS011;5494;51.796;10.952;2023-04-15T13:46:38;38.77;;;23.07;;
10882;SDS011;5494;51.796;10.952;2023-04-15T13:49:07;44.57;;;23.73;;
10882;SDS011;5494;51.796;10.952;2023-04-15T13:51:37;47.97;;;24.67;;
10882;SDS011;5494;51.796;10.952;2023-04-15T13:54:05;44.97;;;23.50;;
10882;SDS011;5494;51.796;10.952;2023-04-15T13:56:33;42.07;;;23.40;;
10882;SDS011;5494;51.796;10.952;2023-04-15T13:59:01;44.57;;;23.10;;
10882;SDS011;5494;51.796;10.952;2023-04-15T14:01:29;38.43;;;21.40;;
10882;SDS011;5494;51.796;10.952;2023-04-15T14:03:57;43.03;;;22.53;;
10882;SDS011;5494;51.796;10.952;2023-04-15T14:06:26;43.50;;;23.97;;
10882;SDS011;5494;51.796;10.952;2023-04-15T14:08:56;43.80;;;23.37;;
10882;SDS011;5494;51.796;10.952;2023-04-15T14:11:24;40.73;;;22.07;;
10882;SDS011;5494;51.796;10.952;2023-04-15T14:13:52;39.23;;;21.93;;
10882;SDS011;5494;51.796;10.952;2023-04-15T14:16:20;39.50;;;22.20;;
10882;SDS011;5494;51.796;10.952;2023-04-15T14:18:48;38.40;;;22.00;;
10882;SDS011;5494;51.796;10.952;2023-04-15T14:21:16;39.47;;;22.50;;
10882;SDS011;5494;51.796;10.952;2023-04-15T14:23:44;38.50;;;21.00;;
10882;SDS011;5494;51.796;10.952;2023-04-15T14:26:13;34.90;;;20.07;;
10882;SDS011;5494;51.796;10.952;2023-04-15T14:28:41;34.43;;;20.37;;
10882;SDS011;5494;51.796;10.952;2023-04-15T14:31:10;36.93;;;22.20;;
10882;SDS011;5494;51.796;10.952;2023-04-15T14:33:39;35.70;;;21.73;;
10882;SDS011;5494;51.796;10.952;2023-04-15T14:36:07;36.23;;;21.20;;
10882;SDS011;5494;51.796;10.952;2023-04-15T14:38:36;36.43;;;20.47;;
10882;SDS011;5494;51.796;10.952;2023-04-15T14:41:05;30.87;;;19.30;;